sensor_id;sensor_type;location;lat;lon;timestamp;P1;durP1;ratioP1;P2;durP2;ratioP2
72235;SDS011;60146;52.498;13.462;2023-01-01T00:01:39;35.93;;;16.67;;
72235;SDS011;60146;52.498;13.462;2023-01-01T00:04:05;28.37;;;13.77;;
72235;SDS011;60146;52.498;13.462;2023-01-01T00:06:32;28.67;;;12.97;;
72235;SDS011;60146;52.498;13.462;2023-01-01T00:08:58;31.83;;;15.07;;
72235;SDS011;60146;52.498;13.462;2023-01-01T00:11:41;20.10;;;10.87;;
72235;SDS011;60146;52.498;13.462;2023-01-01T00:14:07;20.67;;;10.47;;
72235;SDS011;60146;52.498;13.462;2023-01-01T00:16:32;21.17;;;9.83;;
72235;SDS011;60146;52.498;13.462;2023-01-01T00:18:57;19.50;;;9.87;;
72235;SDS011;60146;52.498;13.462;2023-01-01T00:21:22;25.10;;;13.13;;
72235;SDS011;60146;52.498;13.462;2023-01-01T00:23:47;25.70;;;11.60;;
72235;SDS011;60146;52.498;13.462;2023-01-01T00:26:14;69.80;;;30.60;;
72235;SDS011;60146;52.498;13.462;2023-01-01T00:28:40;27.97;;;12.30;;
72235;SDS011;60146;52.498;13.462;2023-01-01T00:31:08;17.07;;;6.13;;
72235;SDS011;60146;52.498;13.462;2023-01-01T00:33:34;13.83;;;6.40;;
72235;SDS011;60146;52.498;13.462;2023-01-01T00:36:08;11.80;;;5.27;;
72235;SDS011;60146;52.498;13.462;2023-01-01T00:38:34;14.53;;;5.53;;
72235;SDS011;60146;52.498;13.462;2023-01-01T00:41:00;10.07;;;4.90;;
72235;SDS011;60146;52.498;13.462;2023-01-01T00:43:25;13.70;;;4.23;;
72235;SDS011;60146;52.498;13.462;2023-01-01T00:45:50;14.43;;;5.03;;
72235;SDS011;60146;52.498;13.462;2023-01-01T00:48:18;8.93;;;4.00;;
72235;SDS011;60146;52.498;13.462;2023-01-01T00:50:45;10.43;;;4.17;;
72235;SDS011;60146;52.498;13.462;2023-01-01T00:53:10;6.90;;;3.20;;
72235;SDS011;60146;52.498;13.462;2023-01-01T00:55:37;9.93;;;3.50;;
72235;SDS011;60146;52.498;13.462;2023-01-01T00:58:03;8.70;;;3.80;;
72235;SDS011;60146;52.498;13.462;2023-01-01T01:00:28;10.77;;;4.57;;
72235;SDS011;60146;52.498;13.462;2023-01-01T01:02:53;8.67;;;4.40;;
72235;SDS011;60146;52.498;13.462;2023-01-01T01:05:18;9.70;;;3.27;;
72235;SDS011;60146;52.498;13.462;2023-01-01T01:07:43;11.07;;;3.63;;
72235;SDS011;60146;52.498;13.462;2023-01-01T01:10:09;9.27;;;4.30;;
72235;SDS011;60146;52.498;13.462;2023-01-01T01:12:36;8.20;;;3.50;;
72235;SDS011;60146;52.498;13.462;2023-01-01T01:15:01;9.73;;;3.67;;
72235;SDS011;60146;52.498;13.462;2023-01-01T01:17:26;7.83;;;3.13;;
72235;SDS011;60146;52.498;13.462;2023-01-01T01:19:53;9.77;;;3.70;;
72235;SDS011;60146;52.498;13.462;2023-01-01T01:22:20;8.67;;;4.40;;
72235;SDS011;60146;52.498;13.462;2023-01-01T01:24:45;8.20;;;3.80;;
72235;SDS011;60146;52.498;13.462;2023-01-01T01:27:10;9.30;;;3.97;;
72235;SDS011;60146;52.498;13.462;2023-01-01T01:29:35;14.93;;;4.07;;
72235;SDS011;60146;52.498;13.462;2023-01-01T01:32:01;8.70;;;3.80;;
72235;SDS011;60146;52.498;13.462;2023-01-01T01:34:26;7.50;;;3.53;;
72235;SDS011;60146;52.498;13.462;2023-01-01T01:36:51;8.53;;;3.50;;
72235;SDS011;60146;52.498;13.462;2023-01-01T01:39:19;55.97;;;29.60;;
72235;SDS011;60146;52.498;13.462;2023-01-01T01:41:44;103.67;;;46.57;;
72235;SDS011;60146;52.498;13.462;2023-01-01T01:46:53;22.03;;;10.30;;
72235;SDS011;60146;52.498;13.462;2023-01-01T01:49:25;17.83;;;8.83;;
72235;SDS011;60146;52.498;13.462;2023-01-01T01:51:51;9.30;;;3.90;;
72235;SDS011;60146;52.498;13.462;2023-01-01T01:54:18;59.87;;;12.83;;
72235;SDS011;60146;52.498;13.462;2023-01-01T01:56:48;11.20;;;4.83;;
72235;SDS011;60146;52.498;13.462;2023-01-01T01:59:15;10.27;;;3.80;;
72235;SDS011;60146;52.498;13.462;2023-01-01T02:01:41;7.33;;;3.13;;
72235;SDS011;60146;52.498;13.462;2023-01-01T02:04:06;9.23;;;3.70;;
72235;SDS011;60146;52.498;13.462;2023-01-01T02:06:32;7.10;;;3.53;;
72235;SDS011;60146;52.498;13.462;2023-01-01T02:08:59;11.43;;;4.57;;
72235;SDS011;60146;52.498;13.462;2023-01-01T02:11:25;11.73;;;4.70;;
72235;SDS011;60146;52.498;13.462;2023-01-01T02:13:51;17.37;;;6.57;;
72235;SDS011;60146;52.498;13.462;2023-01-01T02:16:21;7.57;;;3.57;;
72235;SDS011;60146;52.498;13.462;2023-01-01T02:21:14;8.75;;;3.47;;
72235;SDS011;60146;52.498;13.462;2023-01-01T02:23:43;16.47;;;5.50;;
72235;SDS011;60146;52.498;13.462;2023-01-01T02:28:49;7.83;;;3.67;;
72235;SDS011;60146;52.498;13.462;2023-01-01T02:31:17;10.40;;;4.07;;
72235;SDS011;60146;52.498;13.462;2023-01-01T02:33:45;9.97;;;4.30;;
72235;SDS011;60146;52.498;13.462;2023-01-01T02:36:11;9.23;;;4.43;;
72235;SDS011;60146;52.498;13.462;2023-01-01T02:38:39;8.77;;;4.30;;
72235;SDS011;60146;52.498;13.462;2023-01-01T02:41:08;13.97;;;4.80;;
72235;SDS011;60146;52.498;13.462;2023-01-01T02:43:35;9.20;;;4.00;;
72235;SDS011;60146;52.498;13.462;2023-01-01T02:46:03;13.67;;;4.30;;
72235;SDS011;60146;52.498;13.462;2023-01-01T02:48:36;8.80;;;4.23;;
72235;SDS011;60146;52.498;13.462;2023-01-01T02:51:49;11.17;;;4.03;;
72235;SDS011;60146;52.498;13.462;2023-01-01T02:54:06;11.73;;;4.60;;
72235;SDS011;60146;52.498;13.462;2023-01-01T02:56:53;10.07;;;3.80;;
72235;SDS011;60146;52.498;13.462;2023-01-01T03:05:09;9.83;;;3.30;;
72235;SDS011;60146;52.498;13.462;2023-01-01T03:10:18;7.83;;;3.10;;
72235;SDS011;60146;52.498;13.462;2023-01-01T03:17:40;7.70;;;3.60;;
72235;SDS011;60146;52.498;13.462;2023-01-01T03:20:09;8.50;;;3.88;;
72235;SDS011;60146;52.498;13.462;2023-01-01T03:22:36;12.30;;;3.50;;
72235;SDS011;60146;52.498;13.462;2023-01-01T03:25:04;7.23;;;3.37;;
72235;SDS011;60146;52.498;13.462;2023-01-01T03:27:35;8.17;;;2.93;;
72235;SDS011;60146;52.498;13.462;2023-01-01T03:30:06;12.43;;;3.60;;
72235;SDS011;60146;52.498;13.462;2023-01-01T03:32:48;8.93;;;3.63;;
72235;SDS011;60146;52.498;13.462;2023-01-01T03:35:29;8.90;;;3.10;;
72235;SDS011;60146;52.498;13.462;2023-01-01T03:37:56;9.67;;;3.10;;
72235;SDS011;60146;52.498;13.462;2023-01-01T03:40:28;9.17;;;2.90;;
72235;SDS011;60146;52.498;13.462;2023-01-01T03:43:20;5.33;;;2.67;;
72235;SDS011;60146;52.498;13.462;2023-01-01T03:45:49;10.07;;;3.03;;
72235;SDS011;60146;52.498;13.462;2023-01-01T03:48:24;9.33;;;2.73;;
72235;SDS011;60146;52.498;13.462;2023-01-01T03:53:41;8.67;;;3.43;;
72235;SDS011;60146;52.498;13.462;2023-01-01T03:56:18;6.70;;;2.80;;
72235;SDS011;60146;52.498;13.462;2023-01-01T04:01:13;10.53;;;3.40;;
72235;SDS011;60146;52.498;13.462;2023-01-01T04:03:39;6.07;;;3.10;;
72235;SDS011;60146;52.498;13.462;2023-01-01T04:06:05;7.40;;;3.03;;
72235;SDS011;60146;52.498;13.462;2023-01-01T04:08:31;8.13;;;2.90;;
72235;SDS011;60146;52.498;13.462;2023-01-01T04:11:02;5.83;;;2.83;;
72235;SDS011;60146;52.498;13.462;2023-01-01T04:13:50;5.43;;;2.57;;
72235;SDS011;60146;52.498;13.462;2023-01-01T04:16:22;8.13;;;3.10;;
72235;SDS011;60146;52.498;13.462;2023-01-01T04:18:47;11.00;;;2.87;;
72235;SDS011;60146;52.498;13.462;2023-01-01T04:21:13;7.00;;;3.10;;
72235;SDS011;60146;52.498;13.462;2023-01-01T04:23:38;8.07;;;3.37;;
72235;SDS011;60146;52.498;13.462;2023-01-01T04:26:03;6.03;;;2.90;;
72235;SDS011;60146;52.498;13.462;2023-01-01T04:28:28;7.23;;;2.73;;
72235;SDS011;60146;52.498;13.462;2023-01-01T04:30:53;5.87;;;3.20;;
72235;SDS011;60146;52.498;13.462;2023-01-01T04:33:19;9.37;;;3.13;;
72235;SDS011;60146;52.498;13.462;2023-01-01T04:35:45;9.63;;;3.20;;
72235;SDS011;60146;52.498;13.462;2023-01-01T04:38:13;10.70;;;4.37;;
72235;SDS011;60146;52.498;13.462;2023-01-01T04:40:45;7.17;;;3.10;;
72235;SDS011;60146;52.498;13.462;2023-01-01T04:43:21;6.17;;;2.60;;
72235;SDS011;60146;52.498;13.462;2023-01-01T04:45:53;11.53;;;2.70;;
72235;SDS011;60146;52.498;13.462;2023-01-01T04:48:19;7.37;;;2.67;;
72235;SDS011;60146;52.498;13.462;2023-01-01T04:50:44;5.37;;;2.70;;
72235;SDS011;60146;52.498;13.462;2023-01-01T04:53:20;7.77;;;2.50;;
72235;SDS011;60146;52.498;13.462;2023-01-01T04:55:45;10.00;;;2.73;;
72235;SDS011;60146;52.498;13.462;2023-01-01T04:58:10;7.57;;;2.90;;
72235;SDS011;60146;52.498;13.462;2023-01-01T05:00:41;4.40;;;2.20;;
72235;SDS011;60146;52.498;13.462;2023-01-01T05:03:07;7.00;;;2.90;;
72235;SDS011;60146;52.498;13.462;2023-01-01T05:05:41;5.07;;;2.30;;
72235;SDS011;60146;52.498;13.462;2023-01-01T05:08:12;7.00;;;2.67;;
72235;SDS011;60146;52.498;13.462;2023-01-01T05:10:40;8.67;;;2.97;;
72235;SDS011;60146;52.498;13.462;2023-01-01T05:13:08;6.87;;;2.50;;
72235;SDS011;60146;52.498;13.462;2023-01-01T05:15:34;9.73;;;2.63;;
72235;SDS011;60146;52.498;13.462;2023-01-01T05:18:00;4.93;;;2.30;;
72235;SDS011;60146;52.498;13.462;2023-01-01T05:20:25;6.87;;;2.00;;
72235;SDS011;60146;52.498;13.462;2023-01-01T05:22:50;6.43;;;2.50;;
72235;SDS011;60146;52.498;13.462;2023-01-01T05:25:18;5.10;;;2.20;;
72235;SDS011;60146;52.498;13.462;2023-01-01T05:27:43;5.03;;;2.03;;
72235;SDS011;60146;52.498;13.462;2023-01-01T05:30:09;7.70;;;2.20;;
72235;SDS011;60146;52.498;13.462;2023-01-01T05:32:36;5.80;;;2.07;;
72235;SDS011;60146;52.498;13.462;2023-01-01T05:35:11;5.23;;;1.83;;
72235;SDS011;60146;52.498;13.462;2023-01-01T05:37:39;4.07;;;2.00;;
72235;SDS011;60146;52.498;13.462;2023-01-01T05:40:04;8.57;;;2.10;;
72235;SDS011;60146;52.498;13.462;2023-01-01T05:42:30;5.47;;;1.63;;
72235;SDS011;60146;52.498;13.462;2023-01-01T05:44:55;5.57;;;1.90;;
72235;SDS011;60146;52.498;13.462;2023-01-01T05:47:20;7.57;;;1.97;;
72235;SDS011;60146;52.498;13.462;2023-01-01T05:49:46;3.57;;;1.80;;
72235;SDS011;60146;52.498;13.462;2023-01-01T05:52:11;4.30;;;1.70;;
72235;SDS011;60146;52.498;13.462;2023-01-01T05:54:36;5.53;;;1.83;;
72235;SDS011;60146;52.498;13.462;2023-01-01T05:57:02;5.50;;;1.83;;
72235;SDS011;60146;52.498;13.462;2023-01-01T05:59:27;4.30;;;1.90;;
72235;SDS011;60146;52.498;13.462;2023-01-01T06:01:52;5.20;;;1.70;;
72235;SDS011;60146;52.498;13.462;2023-01-01T06:04:17;6.13;;;1.90;;
72235;SDS011;60146;52.498;13.462;2023-01-01T06:06:43;4.80;;;1.90;;
72235;SDS011;60146;52.498;13.462;2023-01-01T06:09:08;5.37;;;2.30;;
72235;SDS011;60146;52.498;13.462;2023-01-01T06:11:34;6.43;;;2.00;;
72235;SDS011;60146;52.498;13.462;2023-01-01T06:13:59;5.33;;;2.00;;
72235;SDS011;60146;52.498;13.462;2023-01-01T06:16:25;4.53;;;1.83;;
72235;SDS011;60146;52.498;13.462;2023-01-01T06:18:50;8.00;;;1.90;;
72235;SDS011;60146;52.498;13.462;2023-01-01T06:21:18;5.57;;;1.87;;
72235;SDS011;60146;52.498;13.462;2023-01-01T06:23:44;7.33;;;1.70;;
72235;SDS011;60146;52.498;13.462;2023-01-01T06:26:17;4.37;;;2.03;;
72235;SDS011;60146;52.498;13.462;2023-01-01T06:28:42;8.47;;;1.83;;
72235;SDS011;60146;52.498;13.462;2023-01-01T06:31:09;6.80;;;1.80;;
72235;SDS011;60146;52.498;13.462;2023-01-01T06:33:35;5.23;;;1.70;;
72235;SDS011;60146;52.498;13.462;2023-01-01T06:36:01;7.27;;;2.00;;
72235;SDS011;60146;52.498;13.462;2023-01-01T06:38:26;6.27;;;2.07;;
72235;SDS011;60146;52.498;13.462;2023-01-01T06:40:58;6.60;;;1.87;;
72235;SDS011;60146;52.498;13.462;2023-01-01T06:43:23;2.90;;;1.70;;
72235;SDS011;60146;52.498;13.462;2023-01-01T06:45:57;7.67;;;2.00;;
72235;SDS011;60146;52.498;13.462;2023-01-01T06:48:22;7.20;;;1.80;;
72235;SDS011;60146;52.498;13.462;2023-01-01T06:50:48;3.93;;;1.87;;
72235;SDS011;60146;52.498;13.462;2023-01-01T06:53:13;4.50;;;2.10;;
72235;SDS011;60146;52.498;13.462;2023-01-01T06:55:38;4.63;;;1.70;;
72235;SDS011;60146;52.498;13.462;2023-01-01T06:58:03;4.83;;;1.67;;
72235;SDS011;60146;52.498;13.462;2023-01-01T07:00:33;3.45;;;1.88;;
72235;SDS011;60146;52.498;13.462;2023-01-01T07:02:58;6.80;;;1.93;;
72235;SDS011;60146;52.498;13.462;2023-01-01T07:05:23;6.77;;;1.80;;
72235;SDS011;60146;52.498;13.462;2023-01-01T07:07:48;5.50;;;1.90;;
72235;SDS011;60146;52.498;13.462;2023-01-01T07:10:13;4.87;;;1.80;;
72235;SDS011;60146;52.498;13.462;2023-01-01T07:12:39;6.90;;;2.30;;
72235;SDS011;60146;52.498;13.462;2023-01-01T07:15:04;6.17;;;2.23;;
72235;SDS011;60146;52.498;13.462;2023-01-01T07:17:30;4.27;;;1.97;;
72235;SDS011;60146;52.498;13.462;2023-01-01T07:19:55;5.50;;;2.53;;
72235;SDS011;60146;52.498;13.462;2023-01-01T07:22:20;6.63;;;2.20;;
72235;SDS011;60146;52.498;13.462;2023-01-01T07:24:46;6.60;;;2.27;;
72235;SDS011;60146;52.498;13.462;2023-01-01T07:27:11;5.93;;;2.00;;
72235;SDS011;60146;52.498;13.462;2023-01-01T07:29:37;5.60;;;2.03;;
72235;SDS011;60146;52.498;13.462;2023-01-01T07:32:02;8.30;;;2.17;;
72235;SDS011;60146;52.498;13.462;2023-01-01T07:34:28;4.53;;;2.37;;
72235;SDS011;60146;52.498;13.462;2023-01-01T07:36:53;4.70;;;2.20;;
72235;SDS011;60146;52.498;13.462;2023-01-01T07:39:20;5.80;;;2.57;;
72235;SDS011;60146;52.498;13.462;2023-01-01T07:41:45;4.43;;;2.40;;
72235;SDS011;60146;52.498;13.462;2023-01-01T07:44:10;7.37;;;2.27;;
72235;SDS011;60146;52.498;13.462;2023-01-01T07:46:36;7.40;;;2.40;;
72235;SDS011;60146;52.498;13.462;2023-01-01T07:49:01;6.07;;;2.33;;
72235;SDS011;60146;52.498;13.462;2023-01-01T07:51:27;4.47;;;2.30;;
72235;SDS011;60146;52.498;13.462;2023-01-01T07:53:52;4.17;;;1.90;;
72235;SDS011;60146;52.498;13.462;2023-01-01T07:56:17;6.10;;;2.30;;
72235;SDS011;60146;52.498;13.462;2023-01-01T07:58:42;5.33;;;2.47;;
72235;SDS011;60146;52.498;13.462;2023-01-01T08:01:08;8.07;;;2.47;;
72235;SDS011;60146;52.498;13.462;2023-01-01T08:03:34;3.80;;;2.10;;
72235;SDS011;60146;52.498;13.462;2023-01-01T08:05:59;6.80;;;2.70;;
72235;SDS011;60146;52.498;13.462;2023-01-01T08:10:58;6.00;;;2.65;;
72235;SDS011;60146;52.498;13.462;2023-01-01T08:13:23;5.67;;;2.70;;
72235;SDS011;60146;52.498;13.462;2023-01-01T08:15:49;4.97;;;2.43;;
72235;SDS011;60146;52.498;13.462;2023-01-01T08:18:15;6.23;;;2.33;;
72235;SDS011;60146;52.498;13.462;2023-01-01T08:20:40;6.77;;;2.23;;
72235;SDS011;60146;52.498;13.462;2023-01-01T08:23:06;3.87;;;2.27;;
72235;SDS011;60146;52.498;13.462;2023-01-01T08:25:31;7.40;;;2.53;;
72235;SDS011;60146;52.498;13.462;2023-01-01T08:27:56;6.93;;;2.30;;
72235;SDS011;60146;52.498;13.462;2023-01-01T08:30:21;6.00;;;2.83;;
72235;SDS011;60146;52.498;13.462;2023-01-01T08:32:47;7.70;;;2.60;;
72235;SDS011;60146;52.498;13.462;2023-01-01T08:35:12;7.67;;;2.30;;
72235;SDS011;60146;52.498;13.462;2023-01-01T08:37:37;7.63;;;2.37;;
72235;SDS011;60146;52.498;13.462;2023-01-01T08:40:02;7.33;;;2.57;;
72235;SDS011;60146;52.498;13.462;2023-01-01T08:42:28;5.53;;;2.70;;
72235;SDS011;60146;52.498;13.462;2023-01-01T08:44:53;9.03;;;2.97;;
72235;SDS011;60146;52.498;13.462;2023-01-01T08:47:19;5.53;;;2.60;;
72235;SDS011;60146;52.498;13.462;2023-01-01T08:49:45;6.23;;;2.70;;
72235;SDS011;60146;52.498;13.462;2023-01-01T08:52:10;4.40;;;2.27;;
72235;SDS011;60146;52.498;13.462;2023-01-01T08:54:35;6.67;;;2.30;;
72235;SDS011;60146;52.498;13.462;2023-01-01T08:57:00;6.40;;;2.37;;
72235;SDS011;60146;52.498;13.462;2023-01-01T08:59:25;4.70;;;2.30;;
72235;SDS011;60146;52.498;13.462;2023-01-01T09:01:51;8.87;;;2.40;;
72235;SDS011;60146;52.498;13.462;2023-01-01T09:04:16;4.30;;;2.20;;
72235;SDS011;60146;52.498;13.462;2023-01-01T09:06:41;6.07;;;2.37;;
72235;SDS011;60146;52.498;13.462;2023-01-01T09:09:06;6.57;;;2.50;;
72235;SDS011;60146;52.498;13.462;2023-01-01T09:11:32;7.50;;;2.70;;
72235;SDS011;60146;52.498;13.462;2023-01-01T09:13:57;5.53;;;2.47;;
72235;SDS011;60146;52.498;13.462;2023-01-01T09:16:22;8.43;;;2.30;;
72235;SDS011;60146;52.498;13.462;2023-01-01T09:18:47;5.87;;;2.13;;
72235;SDS011;60146;52.498;13.462;2023-01-01T09:21:14;7.20;;;2.60;;
72235;SDS011;60146;52.498;13.462;2023-01-01T09:23:39;7.07;;;2.30;;
72235;SDS011;60146;52.498;13.462;2023-01-01T09:26:05;4.53;;;2.10;;
72235;SDS011;60146;52.498;13.462;2023-01-01T09:28:30;6.87;;;2.30;;
72235;SDS011;60146;52.498;13.462;2023-01-01T09:30:55;3.77;;;2.00;;
72235;SDS011;60146;52.498;13.462;2023-01-01T09:33:20;6.57;;;2.37;;
72235;SDS011;60146;52.498;13.462;2023-01-01T09:35:46;5.50;;;1.90;;
72235;SDS011;60146;52.498;13.462;2023-01-01T09:38:11;5.90;;;2.07;;
72235;SDS011;60146;52.498;13.462;2023-01-01T09:46:05;5.33;;;2.30;;
72235;SDS011;60146;52.498;13.462;2023-01-01T09:48:31;6.97;;;2.40;;
72235;SDS011;60146;52.498;13.462;2023-01-01T09:50:57;5.43;;;2.40;;
72235;SDS011;60146;52.498;13.462;2023-01-01T09:53:42;5.17;;;2.20;;
72235;SDS011;60146;52.498;13.462;2023-01-01T09:56:19;5.33;;;2.00;;
72235;SDS011;60146;52.498;13.462;2023-01-01T09:58:47;5.93;;;2.17;;
72235;SDS011;60146;52.498;13.462;2023-01-01T10:06:27;6.50;;;2.23;;
72235;SDS011;60146;52.498;13.462;2023-01-01T10:11:30;4.57;;;2.00;;
72235;SDS011;60146;52.498;13.462;2023-01-01T10:13:56;5.00;;;1.87;;
72235;SDS011;60146;52.498;13.462;2023-01-01T10:16:41;5.23;;;2.30;;
72235;SDS011;60146;52.498;13.462;2023-01-01T10:21:52;12.23;;;2.50;;
72235;SDS011;60146;52.498;13.462;2023-01-01T10:27:03;3.30;;;1.90;;
72235;SDS011;60146;52.498;13.462;2023-01-01T10:29:40;3.43;;;1.90;;
72235;SDS011;60146;52.498;13.462;2023-01-01T10:34:51;3.87;;;1.97;;
72235;SDS011;60146;52.498;13.462;2023-01-01T10:37:17;7.07;;;1.80;;
72235;SDS011;60146;52.498;13.462;2023-01-01T10:39:43;5.33;;;1.97;;
72235;SDS011;60146;52.498;13.462;2023-01-01T10:42:12;5.60;;;1.80;;
72235;SDS011;60146;52.498;13.462;2023-01-01T10:44:37;5.33;;;1.77;;
72235;SDS011;60146;52.498;13.462;2023-01-01T10:47:04;4.50;;;1.90;;
72235;SDS011;60146;52.498;13.462;2023-01-01T10:49:45;3.63;;;1.80;;
72235;SDS011;60146;52.498;13.462;2023-01-01T10:52:17;5.10;;;1.80;;
72235;SDS011;60146;52.498;13.462;2023-01-01T10:54:42;4.90;;;1.60;;
72235;SDS011;60146;52.498;13.462;2023-01-01T10:59:42;3.27;;;1.40;;
72235;SDS011;60146;52.498;13.462;2023-01-01T11:04:42;8.03;;;1.80;;
72235;SDS011;60146;52.498;13.462;2023-01-01T11:07:08;2.83;;;1.50;;
72235;SDS011;60146;52.498;13.462;2023-01-01T11:09:33;3.53;;;1.80;;
72235;SDS011;60146;52.498;13.462;2023-01-01T11:12:04;3.85;;;1.85;;
72235;SDS011;60146;52.498;13.462;2023-01-01T11:16:58;6.83;;;1.73;;
72235;SDS011;60146;52.498;13.462;2023-01-01T11:19:31;3.93;;;1.80;;
72235;SDS011;60146;52.498;13.462;2023-01-01T11:22:03;4.10;;;1.57;;
72235;SDS011;60146;52.498;13.462;2023-01-01T11:24:29;6.80;;;1.83;;
72235;SDS011;60146;52.498;13.462;2023-01-01T11:29:39;3.63;;;1.60;;
72235;SDS011;60146;52.498;13.462;2023-01-01T11:32:05;7.47;;;2.40;;
72235;SDS011;60146;52.498;13.462;2023-01-01T11:34:33;6.50;;;1.60;;
72235;SDS011;60146;52.498;13.462;2023-01-01T11:37:10;5.83;;;1.80;;
72235;SDS011;60146;52.498;13.462;2023-01-01T11:39:45;4.80;;;1.70;;
72235;SDS011;60146;52.498;13.462;2023-01-01T11:42:20;5.13;;;1.90;;
72235;SDS011;60146;52.498;13.462;2023-01-01T11:44:47;4.57;;;2.03;;
72235;SDS011;60146;52.498;13.462;2023-01-01T11:47:24;4.00;;;1.60;;
72235;SDS011;60146;52.498;13.462;2023-01-01T11:49:55;2.83;;;1.57;;
72235;SDS011;60146;52.498;13.462;2023-01-01T11:52:26;3.43;;;1.50;;
72235;SDS011;60146;52.498;13.462;2023-01-01T11:54:51;4.88;;;1.70;;
72235;SDS011;60146;52.498;13.462;2023-01-01T11:57:17;6.57;;;1.63;;
72235;SDS011;60146;52.498;13.462;2023-01-01T11:59:46;5.33;;;1.63;;
72235;SDS011;60146;52.498;13.462;2023-01-01T12:02:14;2.87;;;1.57;;
72235;SDS011;60146;52.498;13.462;2023-01-01T12:04:43;4.65;;;1.50;;
72235;SDS011;60146;52.498;13.462;2023-01-01T12:07:12;7.13;;;1.57;;
72235;SDS011;60146;52.498;13.462;2023-01-01T12:15:14;5.13;;;1.43;;
72235;SDS011;60146;52.498;13.462;2023-01-01T12:17:41;7.97;;;1.60;;
72235;SDS011;60146;52.498;13.462;2023-01-01T12:22:35;6.27;;;1.93;;
72235;SDS011;60146;52.498;13.462;2023-01-01T12:25:01;6.37;;;1.73;;
72235;SDS011;60146;52.498;13.462;2023-01-01T12:32:33;6.13;;;1.43;;
72235;SDS011;60146;52.498;13.462;2023-01-01T12:42:31;5.73;;;2.00;;
72235;SDS011;60146;52.498;13.462;2023-01-01T12:50:14;4.40;;;1.87;;
72235;SDS011;60146;52.498;13.462;2023-01-01T12:55:34;6.20;;;1.87;;
72235;SDS011;60146;52.498;13.462;2023-01-01T13:00:36;5.13;;;1.50;;
72235;SDS011;60146;52.498;13.462;2023-01-01T13:03:26;3.40;;;1.70;;
72235;SDS011;60146;52.498;13.462;2023-01-01T13:05:49;5.37;;;1.90;;
72235;SDS011;60146;52.498;13.462;2023-01-01T13:08:15;5.97;;;1.87;;
72235;SDS011;60146;52.498;13.462;2023-01-01T13:10:56;5.30;;;1.90;;
72235;SDS011;60146;52.498;13.462;2023-01-01T13:13:22;4.93;;;1.97;;
72235;SDS011;60146;52.498;13.462;2023-01-01T13:15:49;6.93;;;1.90;;
72235;SDS011;60146;52.498;13.462;2023-01-01T13:20:41;4.43;;;1.80;;
72235;SDS011;60146;52.498;13.462;2023-01-01T13:26:29;4.80;;;2.10;;
72235;SDS011;60146;52.498;13.462;2023-01-01T13:28:38;5.40;;;1.73;;
72235;SDS011;60146;52.498;13.462;2023-01-01T13:31:03;5.60;;;2.00;;
72235;SDS011;60146;52.498;13.462;2023-01-01T13:33:29;5.07;;;1.90;;
72235;SDS011;60146;52.498;13.462;2023-01-01T13:41:27;5.67;;;1.70;;
72235;SDS011;60146;52.498;13.462;2023-01-01T13:43:53;7.60;;;1.77;;
72235;SDS011;60146;52.498;13.462;2023-01-01T13:51:41;4.00;;;1.60;;
72235;SDS011;60146;52.498;13.462;2023-01-01T13:56:57;5.40;;;1.87;;
72235;SDS011;60146;52.498;13.462;2023-01-01T14:02:15;5.80;;;1.90;;
72235;SDS011;60146;52.498;13.462;2023-01-01T14:04:59;5.43;;;2.17;;
72235;SDS011;60146;52.498;13.462;2023-01-01T14:07:31;8.43;;;1.87;;
72235;SDS011;60146;52.498;13.462;2023-01-01T14:12:53;6.63;;;2.00;;
72235;SDS011;60146;52.498;13.462;2023-01-01T14:15:22;7.97;;;2.30;;
72235;SDS011;60146;52.498;13.462;2023-01-01T14:20:14;5.22;;;1.77;;
72235;SDS011;60146;52.498;13.462;2023-01-01T14:22:42;5.50;;;1.90;;
72235;SDS011;60146;52.498;13.462;2023-01-01T14:25:12;6.83;;;1.97;;
72235;SDS011;60146;52.498;13.462;2023-01-01T14:27:38;3.97;;;1.70;;
72235;SDS011;60146;52.498;13.462;2023-01-01T14:30:03;7.70;;;2.67;;
72235;SDS011;60146;52.498;13.462;2023-01-01T14:32:28;5.23;;;1.60;;
72235;SDS011;60146;52.498;13.462;2023-01-01T14:34:57;6.50;;;2.03;;
72235;SDS011;60146;52.498;13.462;2023-01-01T14:37:24;7.57;;;2.00;;
72235;SDS011;60146;52.498;13.462;2023-01-01T14:40:05;5.20;;;2.10;;
72235;SDS011;60146;52.498;13.462;2023-01-01T14:42:31;5.67;;;2.00;;
72235;SDS011;60146;52.498;13.462;2023-01-01T14:44:56;6.37;;;2.13;;
72235;SDS011;60146;52.498;13.462;2023-01-01T14:47:23;4.93;;;2.00;;
72235;SDS011;60146;52.498;13.462;2023-01-01T14:49:49;7.03;;;2.23;;
72235;SDS011;60146;52.498;13.462;2023-01-01T14:52:25;7.13;;;2.20;;
72235;SDS011;60146;52.498;13.462;2023-01-01T14:54:52;6.03;;;2.23;;
72235;SDS011;60146;52.498;13.462;2023-01-01T14:57:22;4.93;;;2.10;;
72235;SDS011;60146;52.498;13.462;2023-01-01T14:59:48;6.47;;;2.80;;
72235;SDS011;60146;52.498;13.462;2023-01-01T15:02:23;6.60;;;2.50;;
72235;SDS011;60146;52.498;13.462;2023-01-01T15:04:48;6.90;;;2.53;;
72235;SDS011;60146;52.498;13.462;2023-01-01T15:10:07;5.33;;;2.10;;
72235;SDS011;60146;52.498;13.462;2023-01-01T15:12:36;7.63;;;2.40;;
72235;SDS011;60146;52.498;13.462;2023-01-01T15:15:03;5.73;;;2.30;;
72235;SDS011;60146;52.498;13.462;2023-01-01T15:17:28;7.17;;;2.07;;
72235;SDS011;60146;52.498;13.462;2023-01-01T15:22:42;4.43;;;2.20;;
72235;SDS011;60146;52.498;13.462;2023-01-01T15:25:10;8.57;;;2.40;;
72235;SDS011;60146;52.498;13.462;2023-01-01T15:27:37;6.88;;;2.65;;
72235;SDS011;60146;52.498;13.462;2023-01-01T15:30:03;8.57;;;3.10;;
72235;SDS011;60146;52.498;13.462;2023-01-01T15:32:36;8.27;;;3.10;;
72235;SDS011;60146;52.498;13.462;2023-01-01T15:35:03;8.27;;;2.93;;
72235;SDS011;60146;52.498;13.462;2023-01-01T15:42:38;8.57;;;3.10;;
72235;SDS011;60146;52.498;13.462;2023-01-01T15:45:26;6.97;;;3.10;;
72235;SDS011;60146;52.498;13.462;2023-01-01T15:47:52;7.80;;;3.07;;
72235;SDS011;60146;52.498;13.462;2023-01-01T15:52:43;9.13;;;3.27;;
72235;SDS011;60146;52.498;13.462;2023-01-01T15:55:12;8.47;;;3.40;;
72235;SDS011;60146;52.498;13.462;2023-01-01T15:57:38;7.03;;;3.47;;
72235;SDS011;60146;52.498;13.462;2023-01-01T16:00:03;9.50;;;2.97;;
72235;SDS011;60146;52.498;13.462;2023-01-01T16:02:30;6.47;;;2.80;;
72235;SDS011;60146;52.498;13.462;2023-01-01T16:04:56;8.67;;;3.17;;
72235;SDS011;60146;52.498;13.462;2023-01-01T16:07:22;8.40;;;2.97;;
72235;SDS011;60146;52.498;13.462;2023-01-01T16:09:48;10.30;;;3.00;;
72235;SDS011;60146;52.498;13.462;2023-01-01T16:12:14;7.63;;;2.97;;
72235;SDS011;60146;52.498;13.462;2023-01-01T16:14:39;8.80;;;3.53;;
72235;SDS011;60146;52.498;13.462;2023-01-01T16:17:04;7.97;;;3.00;;
72235;SDS011;60146;52.498;13.462;2023-01-01T16:19:30;7.80;;;3.20;;
72235;SDS011;60146;52.498;13.462;2023-01-01T16:21:55;9.70;;;3.00;;
72235;SDS011;60146;52.498;13.462;2023-01-01T16:24:20;8.17;;;2.97;;
72235;SDS011;60146;52.498;13.462;2023-01-01T16:26:46;25.00;;;8.53;;
72235;SDS011;60146;52.498;13.462;2023-01-01T16:29:12;13.50;;;5.30;;
72235;SDS011;60146;52.498;13.462;2023-01-01T16:31:37;12.70;;;5.03;;
72235;SDS011;60146;52.498;13.462;2023-01-01T16:34:03;13.10;;;5.13;;
72235;SDS011;60146;52.498;13.462;2023-01-01T16:36:29;20.03;;;6.40;;
72235;SDS011;60146;52.498;13.462;2023-01-01T16:38:55;35.57;;;17.03;;
72235;SDS011;60146;52.498;13.462;2023-01-01T16:41:20;25.43;;;11.33;;
72235;SDS011;60146;52.498;13.462;2023-01-01T16:43:46;18.17;;;8.07;;
72235;SDS011;60146;52.498;13.462;2023-01-01T16:46:11;16.70;;;5.67;;